createdAt,value
2023-03-19T00:00:40.453Z,5.90
2023-03-19T00:01:40.451Z,10.40
2023-03-19T00:02:40.534Z,5.90
2023-03-19T00:03:40.503Z,6.30
2023-03-19T00:04:40.419Z,7.90
2023-03-19T00:05:40.394Z,7.40
2023-03-19T00:06:40.382Z,7.30
2023-03-19T00:07:40.362Z,6.20
2023-03-19T00:08:40.399Z,5.20
2023-03-19T00:09:40.357Z,5.10
2023-03-19T00:10:40.330Z,8.20
2023-03-19T00:11:40.310Z,5.10
2023-03-19T00:12:40.309Z,6.30
2023-03-19T00:13:40.285Z,12.20
2023-03-19T00:14:40.299Z,5.70
2023-03-19T00:15:40.261Z,5.90
2023-03-19T00:16:40.300Z,5.60
2023-03-19T00:17:40.237Z,5.80
2023-03-19T00:18:40.257Z,5.20
2023-03-19T00:19:40.273Z,5.90
2023-03-19T00:20:40.216Z,5.70
2023-03-19T00:21:40.273Z,6.20
2023-03-19T00:22:40.429Z,6.50
2023-03-19T00:23:40.186Z,6.50
2023-03-19T00:24:40.183Z,6.10
2023-03-19T00:25:40.156Z,5.80
2023-03-19T00:26:40.132Z,6.30
2023-03-19T00:27:40.134Z,7.00
2023-03-19T00:28:40.105Z,7.70
2023-03-19T00:29:40.105Z,6.10
2023-03-19T00:30:40.176Z,7.40
2023-03-19T00:31:40.066Z,7.10
2023-03-19T00:32:40.085Z,6.90
2023-03-19T00:33:40.038Z,6.70
2023-03-19T00:34:40.045Z,7.40
2023-03-19T00:35:40.018Z,6.50
2023-03-19T00:36:40.042Z,6.70
2023-03-19T00:37:40.016Z,6.60
2023-03-19T00:38:39.967Z,7.20
2023-03-19T00:39:39.982Z,6.80
2023-03-19T00:40:39.932Z,11.00
2023-03-19T00:41:39.937Z,6.80
2023-03-19T00:42:39.930Z,8.90
2023-03-19T00:43:39.909Z,6.90
2023-03-19T00:44:39.904Z,7.30
2023-03-19T00:45:39.888Z,7.40
2023-03-19T00:46:39.856Z,8.10
2023-03-19T00:47:39.857Z,7.40
2023-03-19T00:48:39.832Z,7.40
2023-03-19T00:49:39.852Z,7.30
2023-03-19T00:50:39.805Z,7.10
2023-03-19T00:51:39.827Z,9.20
2023-03-19T00:52:39.787Z,7.60
2023-03-19T00:53:39.782Z,7.80
2023-03-19T00:54:39.820Z,9.40
2023-03-19T00:55:39.755Z,7.90
2023-03-19T00:56:39.725Z,7.10
2023-03-19T00:57:39.725Z,8.00
2023-03-19T00:58:39.708Z,8.80
2023-03-19T00:59:39.729Z,8.20
2023-03-19T01:00:39.700Z,8.30
2023-03-19T01:01:39.721Z,8.40
2023-03-19T01:02:39.645Z,8.30
2023-03-19T01:03:39.639Z,12.00
2023-03-19T01:04:39.722Z,8.60
2023-03-19T01:05:44.036Z,9.20
2023-03-19T01:06:39.645Z,9.50
2023-03-19T01:07:39.587Z,9.60
2023-03-19T01:08:39.572Z,9.30
2023-03-19T01:09:39.571Z,9.80
2023-03-19T01:10:39.541Z,9.30
2023-03-19T01:11:39.524Z,9.40
2023-03-19T01:12:39.518Z,11.00
2023-03-19T01:13:39.505Z,14.50
2023-03-19T01:14:39.537Z,10.90
2023-03-19T01:15:39.482Z,12.20
2023-03-19T01:16:39.466Z,9.60
2023-03-19T01:17:39.463Z,9.50
2023-03-19T01:18:39.447Z,9.40
2023-03-19T01:19:39.447Z,10.20
2023-03-19T01:20:39.427Z,9.50
2023-03-19T01:21:39.436Z,9.30
2023-03-19T01:22:39.379Z,12.50
2023-03-19T01:23:39.372Z,9.90
2023-03-19T01:24:39.378Z,9.60
2023-03-19T01:25:39.356Z,12.10
2023-03-19T01:26:39.355Z,10.10
2023-03-19T01:27:39.349Z,10.40
2023-03-19T01:28:39.302Z,10.10
2023-03-19T01:29:39.292Z,15.20
2023-03-19T01:30:39.281Z,9.40
2023-03-19T01:31:39.286Z,11.80
2023-03-19T01:32:39.307Z,10.30
2023-03-19T01:33:39.247Z,10.80
2023-03-19T01:34:39.250Z,9.90
2023-03-19T01:35:39.257Z,10.00
2023-03-19T01:36:39.208Z,9.60
2023-03-19T01:37:39.181Z,11.40
2023-03-19T01:38:39.172Z,10.50
2023-03-19T01:39:39.162Z,10.00
2023-03-19T01:40:39.178Z,11.60
2023-03-19T01:41:39.138Z,9.30
2023-03-19T01:42:39.160Z,9.70
2023-03-19T01:43:39.107Z,9.30
2023-03-19T01:44:39.109Z,10.20
2023-03-19T01:45:39.096Z,10.50
2023-03-19T01:46:39.255Z,10.20
2023-03-19T01:47:39.052Z,12.80
2023-03-19T01:48:39.084Z,12.00
2023-03-19T01:49:39.027Z,12.20
2023-03-19T01:50:39.031Z,13.50
2023-03-19T01:51:38.999Z,10.50
2023-03-19T01:52:39.003Z,11.10
2023-03-19T01:53:38.970Z,11.90
2023-03-19T01:54:38.960Z,14.60
2023-03-19T01:55:38.974Z,10.50
2023-03-19T01:56:38.960Z,9.30
2023-03-19T01:57:38.913Z,8.70
2023-03-19T01:58:38.911Z,8.00
2023-03-19T01:59:38.901Z,12.30
2023-03-19T02:00:38.908Z,8.40
2023-03-19T02:01:38.874Z,8.80
2023-03-19T02:02:38.852Z,11.20
2023-03-19T02:03:38.850Z,10.40
2023-03-19T02:04:38.850Z,8.70
2023-03-19T02:05:38.831Z,8.20
2023-03-19T02:06:38.798Z,12.00
2023-03-19T02:07:38.787Z,9.60
2023-03-19T02:08:38.812Z,8.90
2023-03-19T02:09:38.793Z,10.70
2023-03-19T02:10:38.766Z,8.50
2023-03-19T02:11:38.730Z,9.00
2023-03-19T02:12:38.741Z,8.10
2023-03-19T02:13:38.713Z,8.90
2023-03-19T02:14:38.713Z,11.10
2023-03-19T02:15:38.695Z,11.70
2023-03-19T02:16:38.712Z,10.00
2023-03-19T02:17:38.648Z,11.00
2023-03-19T02:18:38.656Z,8.90
2023-03-19T02:19:38.619Z,9.00
2023-03-19T02:20:38.629Z,8.70
2023-03-19T02:21:38.612Z,10.80
2023-03-19T02:22:38.601Z,8.40
2023-03-19T02:23:38.605Z,9.80
2023-03-19T02:24:38.563Z,11.00
2023-03-19T02:25:38.559Z,9.30
2023-03-19T02:26:38.576Z,12.10
2023-03-19T02:27:38.522Z,8.90
2023-03-19T02:28:38.512Z,8.50
2023-03-19T02:29:38.492Z,10.20
2023-03-19T02:30:38.485Z,13.00
2023-03-19T02:31:38.503Z,8.20
2023-03-19T02:32:38.469Z,8.60
2023-03-19T02:33:38.444Z,10.20
2023-03-19T02:34:38.427Z,13.10
2023-03-19T02:35:38.463Z,8.50
2023-03-19T02:36:38.440Z,11.60
2023-03-19T02:37:38.386Z,11.10
2023-03-19T02:38:38.383Z,8.80
2023-03-19T02:39:38.361Z,8.10
2023-03-19T02:40:38.361Z,9.10
2023-03-19T02:41:38.347Z,8.90
2023-03-19T02:42:38.325Z,11.10
2023-03-19T02:43:38.340Z,10.90
2023-03-19T02:44:38.318Z,9.20
2023-03-19T02:45:38.271Z,9.80
2023-03-19T02:46:38.385Z,11.30
2023-03-19T02:47:38.260Z,12.10
2023-03-19T02:48:38.257Z,9.00
2023-03-19T02:49:38.229Z,12.90
2023-03-19T02:50:38.253Z,8.70
2023-03-19T02:51:38.202Z,8.80
2023-03-19T02:52:38.207Z,10.70
2023-03-19T02:53:38.182Z,9.20
2023-03-19T02:54:38.163Z,8.70
2023-03-19T02:55:38.177Z,8.90
2023-03-19T02:56:38.159Z,9.10
2023-03-19T02:57:38.146Z,9.30
2023-03-19T02:58:38.113Z,8.70
2023-03-19T02:59:38.124Z,10.40
2023-03-19T03:00:38.146Z,9.70
2023-03-19T03:01:38.173Z,8.90
2023-03-19T03:02:38.068Z,9.00
2023-03-19T03:03:38.047Z,10.30
2023-03-19T03:04:38.037Z,10.90
2023-03-19T03:05:38.123Z,9.90
2023-03-19T03:06:38.037Z,8.60
2023-03-19T03:07:38.026Z,12.00
2023-03-19T03:08:37.994Z,8.30
2023-03-19T03:09:38.010Z,8.40
2023-03-19T03:10:37.969Z,8.80
2023-03-19T03:11:37.999Z,10.10
2023-03-19T03:12:37.952Z,10.60
2023-03-19T03:13:37.934Z,8.80
2023-03-19T03:14:37.920Z,8.30
2023-03-19T03:15:37.902Z,8.40
2023-03-19T03:16:38.179Z,9.30
2023-03-19T03:17:37.870Z,8.10
2023-03-19T03:18:37.869Z,11.90
2023-03-19T03:19:37.839Z,8.80
2023-03-19T03:20:37.846Z,7.70
2023-03-19T03:21:37.849Z,7.70
2023-03-19T03:22:37.812Z,8.50
2023-03-19T03:23:37.812Z,8.10
2023-03-19T03:24:37.832Z,8.40
2023-03-19T03:25:37.763Z,7.80
2023-03-19T03:26:37.794Z,9.70
2023-03-19T03:27:37.737Z,9.40
2023-03-19T03:28:37.728Z,13.30
2023-03-19T03:29:37.731Z,10.30
2023-03-19T03:30:37.710Z,8.60
2023-03-19T03:31:37.739Z,8.30
2023-03-19T03:32:37.746Z,7.50
2023-03-19T03:33:37.669Z,8.10
2023-03-19T03:34:37.647Z,7.50
2023-03-19T03:35:37.918Z,8.00
2023-03-19T03:36:37.684Z,7.20
2023-03-19T03:37:37.613Z,7.70
2023-03-19T03:38:37.601Z,7.80
2023-03-19T03:39:37.589Z,8.40
2023-03-19T03:40:37.579Z,7.50
2023-03-19T03:41:37.598Z,11.50
2023-03-19T03:42:37.613Z,7.40
2023-03-19T03:43:37.525Z,7.30
2023-03-19T03:44:37.527Z,7.40
2023-03-19T03:45:37.572Z,7.80
2023-03-19T03:46:37.555Z,7.70
2023-03-19T03:47:37.476Z,8.50
2023-03-19T03:48:37.469Z,7.90
2023-03-19T03:49:37.496Z,7.40
2023-03-19T03:50:37.460Z,7.40
2023-03-19T03:51:37.459Z,8.90
2023-03-19T03:52:37.437Z,7.60
2023-03-19T03:53:37.402Z,8.10
2023-03-19T03:54:37.384Z,7.00
2023-03-19T03:55:37.373Z,9.10
2023-03-19T03:56:37.410Z,9.00
2023-03-19T03:57:37.354Z,7.40
2023-03-19T03:58:37.336Z,8.60
2023-03-19T03:59:37.334Z,7.30
2023-03-19T04:00:37.331Z,8.00
2023-03-19T04:01:37.322Z,9.60
2023-03-19T04:02:37.354Z,7.30
2023-03-19T04:03:37.351Z,10.20
2023-03-19T04:04:37.290Z,7.70
2023-03-19T04:05:37.252Z,7.50
2023-03-19T04:06:37.246Z,7.10
2023-03-19T04:07:37.217Z,8.00
2023-03-19T04:08:37.220Z,8.50
2023-03-19T04:09:37.192Z,12.60
2023-03-19T04:10:37.176Z,10.60
2023-03-19T04:11:37.205Z,8.80
2023-03-19T04:12:37.153Z,7.90
2023-03-19T04:13:37.168Z,7.80
2023-03-19T04:14:37.137Z,7.70
2023-03-19T04:15:37.108Z,7.50
2023-03-19T04:16:37.147Z,8.50
2023-03-19T04:17:37.116Z,7.40
2023-03-19T04:18:37.075Z,8.50
2023-03-19T04:19:37.058Z,7.80
2023-03-19T04:20:37.060Z,8.70
2023-03-19T04:21:37.112Z,7.70
2023-03-19T04:22:37.016Z,8.10
2023-03-19T04:23:36.999Z,7.70
2023-03-19T04:24:37.001Z,10.10
2023-03-19T04:25:36.981Z,9.00
2023-03-19T04:26:37.000Z,8.60
2023-03-19T04:27:36.976Z,8.10
2023-03-19T04:28:36.967Z,8.00
2023-03-19T04:29:36.942Z,7.90
2023-03-19T04:30:37.475Z,8.20
2023-03-19T04:31:36.929Z,8.30
2023-03-19T04:32:36.946Z,8.20
2023-03-19T04:33:36.874Z,8.30
2023-03-19T04:34:36.867Z,8.80
2023-03-19T04:35:36.934Z,8.50
2023-03-19T04:36:36.850Z,8.80
2023-03-19T04:37:36.832Z,10.50
2023-03-19T04:38:36.835Z,9.50
2023-03-19T04:39:36.812Z,9.10
2023-03-19T04:40:36.825Z,9.10
2023-03-19T04:41:36.800Z,8.70
2023-03-19T04:42:36.761Z,9.80
2023-03-19T04:43:36.748Z,9.20
2023-03-19T04:44:36.724Z,10.20
2023-03-19T04:45:36.715Z,8.90
2023-03-19T04:46:36.738Z,9.50
2023-03-19T04:47:36.684Z,9.30
2023-03-19T04:48:36.678Z,9.50
2023-03-19T04:49:36.665Z,9.50
2023-03-19T04:50:36.673Z,9.40
2023-03-19T04:51:36.671Z,9.70
2023-03-19T04:52:36.653Z,9.30
2023-03-19T04:53:36.648Z,9.40
2023-03-19T04:54:36.598Z,8.80
2023-03-19T04:55:36.585Z,9.40
2023-03-19T04:56:36.584Z,9.50
2023-03-19T04:57:36.575Z,8.70
2023-03-19T04:58:36.561Z,9.00
2023-03-19T04:59:36.549Z,9.10
2023-03-19T05:00:36.544Z,8.60
2023-03-19T05:01:36.596Z,10.70
2023-03-19T05:02:36.497Z,8.00
2023-03-19T05:03:36.518Z,8.30
2023-03-19T05:04:36.451Z,8.70
2023-03-19T05:05:36.462Z,9.20
2023-03-19T05:06:36.430Z,8.40
2023-03-19T05:07:36.424Z,8.50
2023-03-19T05:08:36.436Z,8.00
2023-03-19T05:09:36.361Z,10.00
2023-03-19T05:10:36.577Z,8.30
2023-03-19T05:11:36.351Z,8.50
2023-03-19T05:12:36.300Z,8.80
2023-03-19T05:13:36.322Z,7.70
2023-03-19T05:14:36.295Z,7.20
2023-03-19T05:15:36.351Z,6.10
2023-03-19T05:16:36.299Z,6.30
2023-03-19T05:17:36.271Z,5.80
2023-03-19T05:18:36.232Z,5.90
2023-03-19T05:19:36.205Z,5.10
2023-03-19T05:20:36.339Z,4.90
2023-03-19T05:21:36.207Z,5.10
2023-03-19T05:22:36.160Z,5.10
2023-03-19T05:23:36.148Z,4.70
2023-03-19T05:24:36.148Z,4.80
2023-03-19T05:25:36.141Z,4.70
2023-03-19T05:26:36.136Z,4.80
2023-03-19T05:27:36.114Z,4.50
2023-03-19T05:28:36.108Z,4.70
2023-03-19T05:29:36.091Z,4.90
2023-03-19T05:30:36.255Z,4.80
2023-03-19T05:31:36.064Z,4.90
2023-03-19T05:32:36.079Z,4.90
2023-03-19T05:33:36.039Z,5.20
2023-03-19T05:34:36.014Z,4.70
2023-03-19T05:35:36.066Z,4.80
2023-03-19T05:36:36.001Z,5.00
2023-03-19T05:37:35.975Z,4.90
2023-03-19T05:38:35.965Z,4.40
2023-03-19T05:39:35.946Z,4.40
2023-03-19T05:40:36.117Z,4.90
2023-03-19T05:41:35.935Z,5.00
2023-03-19T05:42:35.900Z,4.60
2023-03-19T05:43:35.883Z,4.60
2023-03-19T05:44:35.884Z,4.80
2023-03-19T05:45:35.864Z,4.40
2023-03-19T05:46:35.926Z,4.70
2023-03-19T05:47:35.862Z,4.90
2023-03-19T05:48:35.832Z,5.20
2023-03-19T05:49:35.816Z,4.90
2023-03-19T05:50:36.091Z,4.40
2023-03-19T05:51:35.810Z,4.80
2023-03-19T05:52:35.768Z,4.70
2023-03-19T05:53:35.773Z,4.70
2023-03-19T05:54:35.748Z,4.70
2023-03-19T05:55:35.741Z,4.60
2023-03-19T05:56:35.756Z,4.70
2023-03-19T05:57:35.728Z,4.40
2023-03-19T05:58:35.691Z,5.50
2023-03-19T05:59:35.685Z,4.80
2023-03-19T06:00:35.934Z,4.40
2023-03-19T06:01:35.808Z,4.60
2023-03-19T06:02:35.725Z,4.60
2023-03-19T06:03:35.666Z,5.00
2023-03-19T06:04:35.608Z,4.70
2023-03-19T06:05:35.603Z,5.00
2023-03-19T06:06:35.607Z,4.70
2023-03-19T06:07:35.569Z,5.10
2023-03-19T06:08:35.570Z,4.80
2023-03-19T06:09:35.585Z,5.00
2023-03-19T06:10:35.981Z,5.10
2023-03-19T06:11:35.593Z,5.40
2023-03-19T06:12:35.532Z,5.00
2023-03-19T06:13:35.497Z,5.20
2023-03-19T06:14:35.483Z,4.90
2023-03-19T06:15:35.774Z,5.50
2023-03-19T06:16:35.515Z,4.70
2023-03-19T06:17:35.466Z,4.50
2023-03-19T06:18:35.432Z,5.50
2023-03-19T06:19:35.429Z,5.10
2023-03-19T06:20:35.884Z,5.00
2023-03-19T06:21:35.452Z,5.10
2023-03-19T06:22:35.388Z,4.60
2023-03-19T06:23:35.371Z,5.20
2023-03-19T06:24:35.344Z,5.30
2023-03-19T06:25:35.337Z,4.80
2023-03-19T06:26:35.356Z,5.00
2023-03-19T06:27:35.337Z,5.20
2023-03-19T06:28:35.295Z,5.20
2023-03-19T06:29:35.296Z,4.80
2023-03-19T06:30:35.517Z,4.70
2023-03-19T06:31:35.324Z,4.70
2023-03-19T06:32:35.304Z,4.30
2023-03-19T06:33:35.235Z,4.60
2023-03-19T06:34:35.222Z,4.40
2023-03-19T06:35:35.213Z,4.40
2023-03-19T06:36:35.221Z,4.20
2023-03-19T06:37:35.186Z,4.60
2023-03-19T06:38:35.168Z,4.70
2023-03-19T06:39:35.162Z,5.10
2023-03-19T06:40:35.405Z,4.70
2023-03-19T06:41:35.182Z,4.40
2023-03-19T06:42:35.175Z,4.50
2023-03-19T06:43:35.112Z,4.30
2023-03-19T06:44:35.087Z,4.70
2023-03-19T06:45:35.118Z,5.10
2023-03-19T06:46:35.102Z,4.80
2023-03-19T06:47:35.057Z,4.80
2023-03-19T06:48:35.043Z,5.10
2023-03-19T06:49:35.066Z,4.80
2023-03-19T06:50:35.204Z,4.80
2023-03-19T06:51:35.033Z,5.20
2023-03-19T06:52:34.993Z,5.00
2023-03-19T06:53:34.994Z,5.10
2023-03-19T06:54:37.840Z,4.80
2023-03-19T06:55:34.978Z,4.90
2023-03-19T06:56:34.984Z,4.90
2023-03-19T06:57:34.932Z,5.50
2023-03-19T06:58:34.962Z,4.50
2023-03-19T06:59:34.915Z,4.90
2023-03-19T07:00:35.069Z,4.40
2023-03-19T07:01:34.902Z,4.80
2023-03-19T07:02:34.861Z,5.00
2023-03-19T07:03:34.861Z,5.10
2023-03-19T07:04:34.890Z,4.70
2023-03-19T07:05:34.834Z,4.90
2023-03-19T07:06:34.824Z,4.50
2023-03-19T07:07:34.795Z,5.00
2023-03-19T07:08:34.774Z,4.70
2023-03-19T07:09:34.773Z,4.70
2023-03-19T07:10:34.992Z,4.70
2023-03-19T07:11:35.967Z,4.80
2023-03-19T07:12:34.724Z,4.90
2023-03-19T07:13:34.731Z,4.70
2023-03-19T07:14:34.718Z,5.00
2023-03-19T07:15:34.702Z,4.60
2023-03-19T07:16:34.800Z,4.90
2023-03-19T07:17:34.705Z,4.60
2023-03-19T07:18:34.653Z,4.60
2023-03-19T07:19:34.645Z,5.50
2023-03-19T07:20:34.874Z,4.40
2023-03-19T07:21:34.625Z,4.80
2023-03-19T07:22:34.645Z,4.80
2023-03-19T07:23:34.606Z,4.60
2023-03-19T07:24:34.582Z,4.80
2023-03-19T07:25:34.567Z,4.80
2023-03-19T07:26:34.560Z,4.80
2023-03-19T07:27:34.603Z,5.20
2023-03-19T07:28:34.556Z,4.30
2023-03-19T07:29:34.530Z,4.50
2023-03-19T07:30:34.807Z,4.70
2023-03-19T07:31:34.566Z,5.00
2023-03-19T07:32:34.564Z,4.90
2023-03-19T07:33:34.478Z,4.50
2023-03-19T07:34:34.521Z,4.60
2023-03-19T07:35:34.477Z,4.40
2023-03-19T07:36:34.432Z,4.50
2023-03-19T07:37:34.461Z,4.20
2023-03-19T07:38:34.410Z,4.10
2023-03-19T07:39:34.391Z,4.00
2023-03-19T07:40:34.621Z,4.50
2023-03-19T07:41:34.371Z,4.90
2023-03-19T07:42:34.388Z,4.10
2023-03-19T07:43:34.362Z,4.40
2023-03-19T07:44:34.333Z,4.20
2023-03-19T07:45:34.337Z,4.20
2023-03-19T07:46:34.300Z,4.30
2023-03-19T07:47:34.314Z,4.50
2023-03-19T07:48:34.277Z,4.60
2023-03-19T07:49:34.276Z,4.40
2023-03-19T07:50:34.501Z,4.80
2023-03-19T07:51:34.238Z,4.40
2023-03-19T07:52:34.238Z,4.80
2023-03-19T07:53:34.238Z,5.00
2023-03-19T07:54:34.202Z,4.40
2023-03-19T07:55:35.570Z,4.30
2023-03-19T07:56:34.203Z,4.90
2023-03-19T07:57:34.212Z,4.40
2023-03-19T07:58:34.149Z,4.50
2023-03-19T07:59:34.148Z,4.60
2023-03-19T08:00:34.370Z,4.50
2023-03-19T08:01:34.151Z,5.00
2023-03-19T08:02:34.235Z,4.80
2023-03-19T08:03:34.095Z,4.50
2023-03-19T08:04:34.107Z,4.90
2023-03-19T08:05:34.077Z,3.90
2023-03-19T08:06:34.090Z,4.70
2023-03-19T08:07:34.067Z,5.30
2023-03-19T08:08:34.029Z,4.60
2023-03-19T08:09:34.029Z,4.50
2023-03-19T08:10:36.300Z,4.70
2023-03-19T08:11:34.024Z,4.60
2023-03-19T08:12:33.958Z,4.50
2023-03-19T08:13:33.959Z,4.60
2023-03-19T08:14:33.945Z,4.40
2023-03-19T08:15:33.944Z,4.60
2023-03-19T08:16:33.963Z,4.50
2023-03-19T08:17:33.924Z,4.20
2023-03-19T08:18:33.932Z,4.40
2023-03-19T08:19:33.873Z,5.00
2023-03-19T08:20:34.175Z,4.90
2023-03-19T08:21:33.894Z,4.60
2023-03-19T08:22:33.839Z,4.80
2023-03-19T08:23:33.852Z,5.80
2023-03-19T08:24:33.810Z,4.50
2023-03-19T08:25:33.825Z,4.70
2023-03-19T08:26:33.871Z,5.50
2023-03-19T08:27:33.781Z,4.90
2023-03-19T08:28:33.764Z,5.10
2023-03-19T08:29:33.749Z,5.00
2023-03-19T08:30:34.030Z,4.90
2023-03-19T08:31:33.754Z,5.10
2023-03-19T08:32:33.741Z,5.70
2023-03-19T08:33:33.681Z,5.60
2023-03-19T08:34:33.674Z,5.00
2023-03-19T08:35:33.721Z,5.10
2023-03-19T08:36:33.719Z,5.10
2023-03-19T08:37:33.656Z,5.50
2023-03-19T08:38:33.620Z,5.50
2023-03-19T08:39:33.603Z,5.10
2023-03-19T08:40:33.872Z,5.30
2023-03-19T08:41:33.612Z,5.50
2023-03-19T08:42:33.580Z,5.70
2023-03-19T08:43:33.563Z,5.50
2023-03-19T08:44:33.529Z,5.60
2023-03-19T08:45:33.740Z,5.70
2023-03-19T08:46:33.623Z,5.30
2023-03-19T08:47:33.533Z,5.60
2023-03-19T08:48:33.489Z,5.90
2023-03-19T08:49:33.529Z,5.40
2023-03-19T08:50:33.846Z,5.70
2023-03-19T08:51:33.442Z,5.40
2023-03-19T08:52:33.452Z,5.50
2023-03-19T08:53:33.421Z,5.30
2023-03-19T08:54:33.410Z,4.60
2023-03-19T08:55:33.400Z,5.40
2023-03-19T08:56:33.384Z,5.40
2023-03-19T08:57:33.393Z,4.30
2023-03-19T08:58:33.388Z,4.40
2023-03-19T08:59:34.272Z,4.60
2023-03-19T09:00:33.614Z,3.90
2023-03-19T09:01:33.411Z,3.50
2023-03-19T09:02:33.342Z,4.30
2023-03-19T09:03:33.291Z,4.80
2023-03-19T09:04:33.316Z,4.20
2023-03-19T09:05:33.268Z,4.40
2023-03-19T09:06:33.258Z,4.50
2023-03-19T09:07:33.258Z,4.00
2023-03-19T09:08:33.242Z,4.40
2023-03-19T09:09:33.210Z,4.20
2023-03-19T09:10:33.480Z,4.70
2023-03-19T09:11:33.236Z,4.50
2023-03-19T09:12:33.201Z,4.10
2023-03-19T09:13:33.154Z,4.60
2023-03-19T09:14:33.166Z,4.70
2023-03-19T09:15:33.369Z,4.80
2023-03-19T09:16:33.118Z,4.70
2023-03-19T09:17:33.121Z,4.10
2023-03-19T09:18:33.085Z,4.20
2023-03-19T09:19:33.081Z,4.50
2023-03-19T09:20:33.070Z,4.80
2023-03-19T09:21:33.054Z,5.10
2023-03-19T09:22:33.028Z,4.70
2023-03-19T09:23:33.045Z,4.50
2023-03-19T09:24:33.018Z,4.70
2023-03-19T09:25:33.239Z,6.70
2023-03-19T09:26:32.997Z,5.20
2023-03-19T09:27:32.950Z,4.70
2023-03-19T09:28:32.956Z,4.40
2023-03-19T09:29:32.942Z,4.20
2023-03-19T09:30:32.930Z,4.20
2023-03-19T09:31:32.981Z,4.60
2023-03-19T09:32:32.951Z,4.40
2023-03-19T09:33:32.871Z,4.80
2023-03-19T09:34:32.870Z,4.50
2023-03-19T09:35:33.223Z,4.30
2023-03-19T09:36:32.870Z,4.30
2023-03-19T09:37:32.834Z,4.40
2023-03-19T09:38:32.817Z,4.30
2023-03-19T09:39:32.795Z,4.60
2023-03-19T09:40:32.809Z,4.10
2023-03-19T09:41:32.783Z,4.50
2023-03-19T09:42:32.765Z,4.20
2023-03-19T09:43:32.772Z,4.10
2023-03-19T09:44:32.733Z,4.10
2023-03-19T09:45:33.071Z,4.50
2023-03-19T09:46:32.900Z,4.50
2023-03-19T09:47:32.694Z,4.40
2023-03-19T09:48:32.698Z,4.60
2023-03-19T09:49:32.668Z,4.30
2023-03-19T09:50:32.679Z,3.90
2023-03-19T09:51:32.647Z,4.00
2023-03-19T09:52:32.623Z,7.50
2023-03-19T09:53:32.606Z,4.00
2023-03-19T09:54:32.587Z,4.10
2023-03-19T09:55:32.763Z,4.30
2023-03-19T09:56:32.596Z,3.70
2023-03-19T09:57:32.568Z,3.90
2023-03-19T09:58:32.575Z,4.40
2023-03-19T09:59:32.525Z,3.90
2023-03-19T10:00:32.554Z,4.40
2023-03-19T10:01:32.546Z,4.60
2023-03-19T10:02:32.500Z,4.10
2023-03-19T10:03:32.528Z,4.50
2023-03-19T10:04:32.474Z,4.00
2023-03-19T10:05:33.045Z,4.90
2023-03-19T10:06:32.450Z,4.90
2023-03-19T10:07:32.421Z,4.50
2023-03-19T10:08:32.403Z,4.80
2023-03-19T10:09:32.394Z,4.90
2023-03-19T10:10:32.384Z,5.10
2023-03-19T10:11:32.384Z,4.90
2023-03-19T10:12:32.347Z,5.00
2023-03-19T10:13:32.336Z,5.10
2023-03-19T10:14:32.330Z,5.30
2023-03-19T10:15:32.579Z,4.80
2023-03-19T10:16:32.362Z,4.40
2023-03-19T10:17:32.281Z,4.60
2023-03-19T10:18:32.315Z,4.60
2023-03-19T10:19:32.608Z,4.30
2023-03-19T10:20:32.248Z,5.10
2023-03-19T10:21:32.244Z,5.10
2023-03-19T10:22:32.211Z,5.30
2023-03-19T10:23:32.241Z,6.40
2023-03-19T10:24:32.190Z,6.20
2023-03-19T10:25:32.620Z,5.80
2023-03-19T10:26:32.169Z,5.20
2023-03-19T10:27:32.140Z,5.30
2023-03-19T10:28:32.162Z,4.70
2023-03-19T10:29:32.130Z,4.80
2023-03-19T10:30:32.109Z,5.50
2023-03-19T10:31:32.115Z,5.90
2023-03-19T10:32:32.105Z,5.00
2023-03-19T10:33:32.101Z,5.00
2023-03-19T10:34:32.071Z,5.20
2023-03-19T10:35:32.058Z,5.00
2023-03-19T10:36:32.037Z,5.30
2023-03-19T10:37:32.020Z,5.00
2023-03-19T10:38:32.019Z,5.10
2023-03-19T10:39:32.001Z,4.70
2023-03-19T10:40:31.973Z,5.00
2023-03-19T10:41:31.956Z,4.90
2023-03-19T10:42:33.184Z,4.70
2023-03-19T10:43:31.956Z,4.90
2023-03-19T10:44:31.922Z,4.90
2023-03-19T10:45:32.069Z,4.60
2023-03-19T10:46:31.892Z,4.90
2023-03-19T10:47:31.865Z,4.70
2023-03-19T10:48:31.899Z,4.30
2023-03-19T10:49:31.853Z,5.10
2023-03-19T10:50:31.849Z,4.70
2023-03-19T10:51:31.841Z,4.60
2023-03-19T10:52:31.815Z,5.20
2023-03-19T10:53:31.793Z,4.70
2023-03-19T10:54:31.777Z,4.60
2023-03-19T10:55:31.792Z,4.40
2023-03-19T10:56:31.780Z,4.60
2023-03-19T10:57:31.828Z,4.60
2023-03-19T10:58:31.734Z,4.50
2023-03-19T10:59:31.711Z,5.20
2023-03-19T11:00:31.699Z,4.10
2023-03-19T11:01:31.785Z,4.60
2023-03-19T11:02:31.680Z,4.30
2023-03-19T11:03:31.755Z,3.90
2023-03-19T11:04:31.653Z,3.80
2023-03-19T11:05:32.190Z,4.70
2023-03-19T11:06:31.631Z,6.70
2023-03-19T11:07:31.602Z,7.00
2023-03-19T11:08:35.895Z,5.50
2023-03-19T11:09:31.587Z,4.20
2023-03-19T11:10:31.567Z,4.00
2023-03-19T11:11:31.546Z,4.00
2023-03-19T11:12:31.552Z,4.20
2023-03-19T11:13:31.540Z,4.50
2023-03-19T11:14:31.515Z,4.60
2023-03-19T11:15:31.491Z,3.90
2023-03-19T11:16:31.536Z,4.40
2023-03-19T11:17:31.469Z,3.90
2023-03-19T11:18:31.466Z,4.00
2023-03-19T11:19:31.448Z,4.10
2023-03-19T11:20:31.431Z,5.50
2023-03-19T11:21:31.429Z,5.70
2023-03-19T11:22:31.420Z,5.80
2023-03-19T11:23:31.435Z,4.70
2023-03-19T11:24:31.398Z,4.90
2023-03-19T11:25:31.366Z,4.10
2023-03-19T11:26:31.376Z,4.10
2023-03-19T11:27:31.325Z,3.90
2023-03-19T11:28:31.349Z,4.00
2023-03-19T11:29:31.305Z,4.50
2023-03-19T11:30:31.284Z,4.60
2023-03-19T11:31:31.400Z,4.20
2023-03-19T11:32:31.339Z,4.00
2023-03-19T11:33:31.253Z,4.20
2023-03-19T11:34:31.229Z,4.80
2023-03-19T11:35:31.232Z,4.60
2023-03-19T11:36:31.235Z,5.20
2023-03-19T11:37:31.189Z,5.20
2023-03-19T11:38:31.218Z,5.30
2023-03-19T11:39:31.161Z,5.60
2023-03-19T11:40:31.153Z,5.80
2023-03-19T11:41:31.154Z,5.90
2023-03-19T11:42:31.148Z,7.10
2023-03-19T11:43:31.106Z,6.50
2023-03-19T11:44:31.103Z,7.30
2023-03-19T11:45:31.078Z,7.30
2023-03-19T11:46:31.117Z,7.90
2023-03-19T11:47:31.046Z,7.50
2023-03-19T11:48:31.085Z,7.20
2023-03-19T11:49:31.030Z,7.90
2023-03-19T11:50:31.018Z,7.20
2023-03-19T11:51:31.023Z,8.00
2023-03-19T11:52:31.026Z,8.50
2023-03-19T11:53:31.001Z,9.10
2023-03-19T11:54:30.961Z,9.40
2023-03-19T11:55:30.975Z,9.90
2023-03-19T11:56:30.948Z,10.50
2023-03-19T11:57:30.926Z,12.30
2023-03-19T11:58:30.962Z,13.00
2023-03-19T11:59:30.896Z,13.20
2023-03-19T12:00:30.897Z,13.00
2023-03-19T12:01:30.887Z,14.60
2023-03-19T12:02:30.896Z,15.50
2023-03-19T12:03:30.981Z,16.30
2023-03-19T12:04:30.840Z,17.70
2023-03-19T12:05:30.820Z,18.30
2023-03-19T12:06:30.830Z,16.90
2023-03-19T12:07:30.809Z,17.80
2023-03-19T12:08:30.820Z,19.30
2023-03-19T12:09:30.774Z,19.10
2023-03-19T12:10:30.766Z,18.80
2023-03-19T12:11:30.771Z,17.10
2023-03-19T12:12:30.730Z,19.60
2023-03-19T12:13:30.719Z,16.10
2023-03-19T12:14:30.727Z,19.20
2023-03-19T12:15:30.692Z,17.60
2023-03-19T12:16:30.776Z,16.40
2023-03-19T12:17:30.667Z,15.60
2023-03-19T12:18:30.674Z,14.80
2023-03-19T12:19:30.641Z,13.70
2023-03-19T12:20:30.645Z,14.00
2023-03-19T12:21:30.617Z,13.90
2023-03-19T12:22:30.608Z,12.30
2023-03-19T12:23:30.612Z,11.50
2023-03-19T12:24:30.586Z,9.60
2023-03-19T12:25:30.576Z,9.00
2023-03-19T12:26:30.578Z,11.00
2023-03-19T12:27:30.549Z,10.20
2023-03-19T12:28:30.565Z,9.00
2023-03-19T12:29:30.525Z,9.80
2023-03-19T12:30:30.510Z,9.50
2023-03-19T12:31:30.556Z,9.20
2023-03-19T12:32:30.490Z,10.00
2023-03-19T12:33:30.486Z,10.80
2023-03-19T12:34:30.452Z,11.00
2023-03-19T12:35:30.450Z,9.90
2023-03-19T12:36:30.417Z,8.80
2023-03-19T12:37:30.421Z,9.50
2023-03-19T12:38:30.426Z,9.10
2023-03-19T12:39:30.462Z,8.90
2023-03-19T12:40:30.367Z,9.70
2023-03-19T12:41:30.342Z,9.40
2023-03-19T12:42:30.358Z,8.60
2023-03-19T12:43:30.371Z,7.50
2023-03-19T12:44:36.896Z,7.30
2023-03-19T12:45:30.291Z,7.00
2023-03-19T12:46:30.302Z,7.30
2023-03-19T12:47:30.967Z,8.40
2023-03-19T12:48:30.269Z,7.50
2023-03-19T12:49:30.346Z,7.70
2023-03-19T12:50:30.243Z,8.50
2023-03-19T12:51:30.203Z,7.00
2023-03-19T12:52:30.193Z,6.50
2023-03-19T12:53:30.226Z,7.10
2023-03-19T12:54:30.208Z,6.90
2023-03-19T12:55:30.154Z,6.90
2023-03-19T12:56:30.166Z,5.30
2023-03-19T12:57:30.198Z,5.80
2023-03-19T12:58:30.132Z,5.70
2023-03-19T12:59:30.208Z,5.30
2023-03-19T13:00:30.083Z,5.90
2023-03-19T13:01:30.077Z,5.30
2023-03-19T13:02:30.138Z,5.40
2023-03-19T13:03:30.045Z,5.90
2023-03-19T13:04:30.117Z,4.80
2023-03-19T13:05:30.019Z,4.60
2023-03-19T13:06:29.998Z,4.70
2023-03-19T13:07:29.987Z,5.60
2023-03-19T13:08:30.007Z,4.80
2023-03-19T13:09:29.975Z,5.40
2023-03-19T13:10:28.940Z,7.60
2023-03-19T13:11:30.007Z,8.10
2023-03-19T13:12:29.917Z,8.60
2023-03-19T13:13:29.953Z,9.10
2023-03-19T13:14:29.931Z,8.90